Bungay, United Kingdom
Current Conditions -  °F | °C
As of 7:20 PM on Sunday 21 Dec 2014 (Local Time) from EGSD Reporting Station
Scattered Clouds Scattered Clouds  
Wind Chill: 50°   Ceiling: Unl
Heat Index: 50°   Visibility: 6mi
Dew Point: 48°   Wind: 26mph
Humidity: 94%   Direction: 240°WSW
Pressure: 30.03"   Gusts: NA
Location:  52.45°N, 1.44°E
Report Text: EGSD 211920Z 24023KT 9999 SCT015 10/09 Q1017
Loading
Personal Weather Stations






























Interactive Weather Map New forecast layout! Learn more

10-Day Weather Forecast

Advertisements
Track Severe Weather on mobile